Time;durP1;ratioP1;P1;durP2;ratioP2;P2;SDS_P1;SDS_P2;PMS_P1;PMS_P2;Temp;Humidity;BMP_temperature;BMP_pressure;BME280_temperature;BME280_humidity;BME280_pressure;Samples;Min_cycle;Max_cycle;Signal;HPM_P1;HPM_P2
2023/04/02 00:00:10;;;;;;;50.40;34.10;;;;;;;5.51;100.00;98766.31;4991340;28;20023;-77
2023/04/02 00:02:57;;;;;;;53.35;36.47;;;;;;;5.41;100.00;98772.78;4972308;28;20046;-77
2023/04/02 00:05:29;;;;;;;46.95;34.72;;;;;;;5.41;100.00;98765.03;5053087;28;20070;-77
2023/04/02 00:07:59;;;;;;;54.67;37.03;;;;;;;5.34;100.00;98767.00;5052709;28;20024;-78
2023/04/02 00:10:49;;;;;;;53.80;37.97;;;;;;;5.42;100.00;98775.28;5051579;28;20434;-77
2023/04/02 00:13:14;;;;;;;48.05;34.47;;;;;;;5.39;100.00;98772.81;5053032;28;20170;-77
2023/04/02 00:15:43;;;;;;;50.47;34.38;;;;;;;5.23;100.00;98761.44;5052502;28;20528;-77
2023/04/02 00:18:15;;;;;;;45.58;33.50;;;;;;;5.25;100.00;98785.44;5052849;28;20040;-77
2023/04/02 00:20:44;;;;;;;45.08;30.58;;;;;;;5.17;100.00;98756.50;5052561;28;20107;-77
2023/04/02 00:23:12;;;;;;;46.53;33.97;;;;;;;5.38;100.00;98776.31;5052548;28;20040;-77
2023/04/02 00:25:41;;;;;;;38.10;28.38;;;;;;;5.31;100.00;98792.09;5053122;28;20029;-77
2023/04/02 00:28:16;;;;;;;37.85;28.13;;;;;;;5.24;100.00;98805.25;5052349;28;20127;-77
2023/04/02 00:30:47;;;;;;;33.95;26.05;;;;;;;5.31;100.00;98802.41;5052302;28;20474;-77
2023/04/02 00:33:17;;;;;;;31.73;24.13;;;;;;;5.18;100.00;98774.53;5052535;28;20044;-77
2023/04/02 00:35:42;;;;;;;30.60;23.88;;;;;;;5.44;100.00;98803.66;5052156;28;20028;-77
2023/04/02 00:38:19;;;;;;;24.33;19.50;;;;;;;5.10;100.00;98797.19;5051098;28;20459;-77
2023/04/02 00:40:44;;;;;;;26.48;20.83;;;;;;;5.28;100.00;98811.13;5052132;28;20021;-77
2023/04/02 00:43:15;;;;;;;23.48;17.80;;;;;;;4.91;100.00;98797.03;5052419;28;20040;-77
2023/04/02 00:45:49;;;;;;;23.40;18.75;;;;;;;4.90;100.00;98816.00;5052139;28;20036;-77
2023/04/02 00:48:29;;;;;;;25.77;18.80;;;;;;;4.93;100.00;98808.16;5052246;28;20029;-77
2023/04/02 00:50:55;;;;;;;24.15;20.77;;;;;;;5.07;100.00;98812.78;5052154;28;20025;-77
2023/04/02 00:53:26;;;;;;;26.10;20.15;;;;;;;4.88;100.00;98811.78;5052156;28;20033;-77
2023/04/02 00:55:52;;;;;;;24.90;19.67;;;;;;;4.90;100.00;98818.59;5051924;28;20032;-77
2023/04/02 00:58:35;;;;;;;28.10;23.05;;;;;;;4.92;100.00;98819.34;5052362;28;20120;-77
2023/04/02 01:01:03;;;;;;;26.73;21.55;;;;;;;4.79;100.00;98789.75;5052368;28;20033;-77
2023/04/02 01:03:35;;;;;;;28.02;21.85;;;;;;;4.83;100.00;98837.75;5052142;28;20036;-77
2023/04/02 01:06:04;;;;;;;27.85;23.23;;;;;;;4.84;100.00;98830.84;5051686;28;20033;-77
2023/04/02 01:08:33;;;;;;;31.50;24.20;;;;;;;5.00;100.00;98840.56;5051974;28;20024;-77
2023/04/02 01:11:16;;;;;;;29.67;22.80;;;;;;;4.84;100.00;98823.13;5051563;28;20499;-77
2023/04/02 01:13:56;;;;;;;29.52;23.33;;;;;;;4.74;100.00;98776.19;5052133;28;20033;-77
2023/04/02 01:16:37;;;;;;;27.58;22.13;;;;;;;4.86;100.00;98834.22;5052036;28;20021;-77
2023/04/02 01:19:21;;;;;;;27.55;21.77;;;;;;;4.79;100.00;98845.66;5051742;28;20431;-77
2023/04/02 01:22:05;;;;;;;26.70;22.48;;;;;;;4.71;100.00;98846.78;5051496;28;20033;-77
2023/04/02 01:24:33;;;;;;;26.65;21.80;;;;;;;4.47;100.00;98817.56;5051961;28;20044;-77
2023/04/02 01:27:02;;;;;;;30.60;23.95;;;;;;;4.66;100.00;98847.84;5051485;28;20082;-77
2023/04/02 01:29:54;;;;;;;27.48;22.38;;;;;;;4.58;100.00;98857.59;5051730;28;20021;-77
2023/04/02 01:32:22;;;;;;;26.85;20.27;;;;;;;4.43;100.00;98848.66;5051919;28;20037;-76
2023/04/02 01:34:49;;;;;;;25.60;20.90;;;;;;;4.30;100.00;98830.19;5051922;28;20032;-77
2023/04/02 01:37:56;;;;;;;29.23;21.40;;;;;;;4.43;100.00;98861.53;5051745;28;20021;-76
2023/04/02 01:40:49;;;;;;;23.25;19.52;;;;;;;4.36;100.00;98867.78;5049013;28;20041;-77
2023/04/02 01:43:36;;;;;;;26.67;20.45;;;;;;;4.33;100.00;98881.63;5049208;28;20076;-77
2023/04/02 01:46:24;;;;;;;25.20;19.80;;;;;;;4.15;100.00;98872.78;5048922;28;20032;-77
2023/04/02 01:48:51;;;;;;;25.63;20.60;;;;;;;4.31;100.00;98880.00;5048813;28;20033;-77
2023/04/02 01:51:29;;;;;;;24.48;20.05;;;;;;;4.18;100.00;98859.78;5048839;28;20056;-77
2023/04/02 01:53:57;;;;;;;23.65;18.85;;;;;;;4.22;100.00;98865.69;5048747;28;20033;-77
2023/04/02 01:56:23;;;;;;;23.92;18.83;;;;;;;3.91;100.00;98846.06;5048902;28;20033;-77
2023/04/02 01:58:49;;;;;;;22.17;17.70;;;;;;;4.13;100.00;98899.47;5048706;28;20040;-77
2023/04/02 02:01:18;;;;;;;22.52;17.58;;;;;;;4.05;100.00;98897.16;5049136;28;20048;-77
2023/04/02 02:03:44;;;;;;;21.20;16.90;;;;;;;4.04;100.00;98899.78;5049824;28;20033;-77
2023/04/02 02:06:15;;;;;;;18.75;16.50;;;;;;;3.85;100.00;98866.03;5052929;28;20029;-77
2023/04/02 02:08:48;;;;;;;22.33;17.95;;;;;;;3.98;100.00;98911.13;5052940;28;20028;-77
2023/04/02 02:11:17;;;;;;;22.83;19.58;;;;;;;3.96;100.00;98916.34;5052745;28;20033;-77
2023/04/02 02:13:49;;;;;;;21.42;18.20;;;;;;;3.84;100.00;98898.69;5052594;28;20043;-78
2023/04/02 02:16:16;;;;;;;20.50;17.40;;;;;;;3.70;100.00;98901.66;5053273;28;20041;-77
2023/04/02 02:18:43;;;;;;;24.13;19.58;;;;;;;3.86;100.00;98919.25;5055080;28;20047;-78
2023/04/02 02:21:09;;;;;;;26.75;18.75;;;;;;;3.89;100.00;98930.28;5054885;28;20029;-77
2023/04/02 02:23:35;;;;;;;22.48;19.40;;;;;;;3.66;100.00;98909.53;5054997;28;20453;-78
2023/04/02 02:26:05;;;;;;;22.15;19.00;;;;;;;3.63;100.00;98904.50;5054611;28;20021;-77
2023/04/02 02:28:32;;;;;;;21.20;17.73;;;;;;;3.67;100.00;98939.56;5054787;28;20468;-77
2023/04/02 02:31:26;;;;;;;22.98;18.75;;;;;;;3.61;100.00;98952.63;5054673;28;20028;-78
2023/04/02 02:33:57;;;;;;;20.50;17.05;;;;;;;3.36;100.00;98888.97;5054661;28;20681;-77
2023/04/02 02:36:45;;;;;;;18.05;15.35;;;;;;;3.71;100.00;98952.31;5054681;28;20029;-77
2023/04/02 02:39:31;;;;;;;19.48;15.90;;;;;;;3.54;100.00;98940.81;5054523;28;20040;-78
2023/04/02 02:42:01;;;;;;;18.63;14.68;;;;;;;3.60;100.00;98953.50;5054508;28;20021;-78
2023/04/02 02:44:32;;;;;;;16.48;14.60;;;;;;;3.52;100.00;98948.59;5054675;28;20457;-77
2023/04/02 02:47:02;;;;;;;16.58;14.73;;;;;;;3.46;100.00;98944.47;5054199;28;20382;-77
2023/04/02 02:49:32;;;;;;;16.08;14.30;;;;;;;3.66;100.00;98981.66;5054691;28;20035;-77
2023/04/02 02:52:12;;;;;;;19.27;16.02;;;;;;;3.71;100.00;98983.22;5054317;28;20025;-77
2023/04/02 02:54:44;;;;;;;20.63;17.00;;;;;;;3.79;100.00;98984.69;5054367;28;20108;-77
2023/04/02 02:57:15;;;;;;;17.25;15.45;;;;;;;3.71;100.00;98964.34;5053948;28;20420;-77
2023/04/02 02:59:41;;;;;;;17.53;15.63;;;;;;;3.71;100.00;98969.50;5054136;28;20033;-77
2023/04/02 03:02:07;;;;;;;17.50;14.80;;;;;;;3.60;100.00;98974.13;5053931;28;20029;-77
2023/04/02 03:04:35;;;;;;;16.73;14.88;;;;;;;3.41;100.00;98982.38;5054408;28;20354;-77
2023/04/02 03:07:02;;;;;;;18.05;15.77;;;;;;;3.49;100.00;99010.44;5053890;28;20119;-77
2023/04/02 03:09:35;;;;;;;19.45;17.23;;;;;;;3.58;100.00;98984.47;5053959;28;20025;-77
2023/04/02 03:12:12;;;;;;;17.75;15.77;;;;;;;3.70;100.00;99016.72;5053461;28;20029;-77
2023/04/02 03:14:45;;;;;;;20.40;16.88;;;;;;;3.83;100.00;99009.47;5054149;28;20052;-77
2023/04/02 03:17:48;;;;;;;18.33;16.38;;;;;;;3.81;100.00;98994.09;5053773;28;20108;-77
2023/04/02 03:20:30;;;;;;;16.85;13.18;;;;;;;3.55;100.00;99005.16;5051147;28;20132;-77
2023/04/02 03:22:59;;;;;;;17.33;14.73;;;;;;;3.66;100.00;99003.09;5051263;28;20040;-77
2023/04/02 03:26:12;;;;;;;14.60;13.05;;;;;;;3.96;100.00;99040.00;5051347;28;20146;-77
2023/04/02 03:28:44;;;;;;;16.02;12.65;;;;;;;3.97;100.00;99033.13;4972188;28;20051;-76
2023/04/02 03:31:16;;;;;;;15.40;12.00;;;;;;;3.78;100.00;99032.81;4972257;28;20061;-77
2023/04/02 03:33:47;;;;;;;12.25;10.07;;;;;;;3.38;100.00;99015.91;4972516;28;20439;-77
2023/04/02 03:36:18;;;;;;;14.18;11.18;;;;;;;3.64;100.00;99058.13;4972250;28;20479;-76
2023/04/02 03:38:50;;;;;;;16.08;12.10;;;;;;;3.60;100.00;99030.75;4972404;28;20073;-76
2023/04/02 03:41:21;;;;;;;15.20;12.98;;;;;;;3.74;100.00;99054.38;4972262;28;20038;-75
2023/04/02 03:43:51;;;;;;;14.80;12.95;;;;;;;3.72;100.00;99033.84;4972324;28;20060;-75
2023/04/02 03:46:25;;;;;;;17.88;13.90;;;;;;;3.86;100.00;99064.34;4972326;28;20039;-75
2023/04/02 03:49:00;;;;;;;19.85;15.27;;;;;;;3.86;100.00;99068.66;4972222;28;20034;-75
2023/04/02 03:51:35;;;;;;;20.98;15.80;;;;;;;3.69;100.00;99059.66;4971950;28;20510;-75
2023/04/02 03:54:01;;;;;;;19.20;16.25;;;;;;;3.91;100.00;99067.63;4971928;28;20051;-75
2023/04/02 03:56:38;;;;;;;21.73;16.52;;;;;;;3.85;100.00;99060.09;4972050;28;20077;-76
2023/04/02 03:59:17;;;;;;;22.05;18.30;;;;;;;3.87;100.00;99084.06;4971741;28;20043;-75
2023/04/02 04:01:52;;;;;;;25.98;19.35;;;;;;;3.66;100.00;99098.38;4972342;28;20081;-75
2023/04/02 04:04:19;;;;;;;29.65;21.83;;;;;;;3.37;100.00;99049.41;4998022;28;20192;-75
2023/04/02 04:06:49;;;;;;;21.77;18.65;;;;;;;3.67;100.00;99100.09;5053237;28;20025;-76
2023/04/02 04:09:21;;;;;;;28.65;20.92;;;;;;;3.71;100.00;99104.25;5052768;28;20025;-76
2023/04/02 04:11:55;;;;;;;26.02;19.67;;;;;;;3.70;100.00;99109.44;5052941;28;20071;-76
2023/04/02 04:14:32;;;;;;;23.55;18.05;;;;;;;3.70;100.00;99112.84;5052790;28;20476;-75
2023/04/02 04:17:16;;;;;;;30.45;20.52;;;;;;;3.63;100.00;99102.78;5052769;28;20028;-76
2023/04/02 04:19:53;;;;;;;31.95;21.85;;;;;;;3.71;100.00;99106.84;5052876;28;20025;-75
2023/04/02 04:22:31;;;;;;;34.08;23.15;;;;;;;3.64;100.00;99107.03;5052784;28;20025;-75
2023/04/02 04:24:59;;;;;;;26.52;18.88;;;;;;;3.62;100.00;99107.06;5052443;28;20027;-75
2023/04/02 04:27:41;;;;;;;26.70;19.73;;;;;;;3.85;100.00;99127.06;5052099;28;20432;-76
2023/04/02 04:30:28;;;;;;;25.33;18.83;;;;;;;3.75;100.00;99136.78;5052452;28;20027;-75
2023/04/02 04:33:03;;;;;;;26.02;18.35;;;;;;;3.72;100.00;99130.88;5052385;28;20037;-75
2023/04/02 04:35:36;;;;;;;28.25;19.02;;;;;;;3.88;100.00;99145.00;5052742;28;20025;-76
2023/04/02 04:38:16;;;;;;;27.60;17.70;;;;;;;3.95;100.00;99149.09;5052407;28;20040;-76
2023/04/02 04:40:51;;;;;;;29.80;19.33;;;;;;;3.90;100.00;99132.91;5052409;28;20576;-76
2023/04/02 04:43:26;;;;;;;26.00;17.70;;;;;;;3.88;100.00;99162.22;5052177;28;20052;-76
2023/04/02 04:46:02;;;;;;;24.83;16.20;;;;;;;3.76;100.00;99145.34;5052786;28;20507;-76
2023/04/02 04:48:40;;;;;;;22.00;16.67;;;;;;;3.68;100.00;99175.63;5052279;28;20033;-76
2023/04/02 04:51:18;;;;;;;22.63;16.35;;;;;;;3.56;100.00;99175.94;5052290;28;20487;-76
2023/04/02 04:53:49;;;;;;;20.73;15.98;;;;;;;3.60;100.00;99175.81;5052176;28;20056;-76
2023/04/02 04:56:20;;;;;;;20.20;14.43;;;;;;;3.71;100.00;99185.84;5052349;28;20032;-75
2023/04/02 04:58:51;;;;;;;25.15;16.20;;;;;;;3.49;100.00;99165.78;5052283;28;20025;-75
2023/04/02 05:01:32;;;;;;;21.90;14.88;;;;;;;3.51;100.00;99176.03;5052184;28;20029;-75
2023/04/02 05:04:11;;;;;;;25.63;18.15;;;;;;;3.55;100.00;99200.00;5051877;28;20036;-76
2023/04/02 05:06:42;;;;;;;21.50;15.60;;;;;;;3.65;100.00;99201.44;5051979;28;20563;-75
2023/04/02 05:09:28;;;;;;;20.50;14.82;;;;;;;3.58;100.00;99216.22;5051967;28;20380;-74
2023/04/02 05:12:01;;;;;;;20.67;15.25;;;;;;;3.61;100.00;99221.25;5051834;28;20525;-76
2023/04/02 05:15:01;;;;;;;20.63;14.20;;;;;;;3.58;100.00;99202.47;5051994;28;20031;-76
2023/04/02 05:17:41;;;;;;;20.10;15.27;;;;;;;3.75;100.00;99219.19;5051797;28;20492;-75
2023/04/02 05:20:23;;;;;;;22.27;15.88;;;;;;;3.74;100.00;99204.59;5051541;28;20036;-76
2023/04/02 05:23:14;;;;;;;22.17;15.32;;;;;;;3.70;100.00;99240.78;5051786;28;20040;-75
2023/04/02 05:26:05;;;;;;;17.05;13.80;;;;;;;3.48;100.00;99199.28;5051984;28;20037;-76
2023/04/02 05:28:49;;;;;;;19.77;13.50;;;;;;;3.53;100.00;99250.66;5051485;28;20045;-76
2023/04/02 05:31:19;;;;;;;18.98;13.05;;;;;;;3.50;100.00;99249.03;5051433;28;20385;-75
2023/04/02 05:33:48;;;;;;;15.65;12.90;;;;;;;3.47;100.00;99252.50;5051712;28;20021;-75
2023/04/02 05:36:26;;;;;;;17.02;11.60;;;;;;;3.59;100.00;99261.69;5051600;28;20107;-76
2023/04/02 05:38:53;;;;;;;14.95;11.82;;;;;;;3.26;100.00;99242.72;5052835;28;20032;-75
2023/04/02 05:41:31;;;;;;;16.80;12.18;;;;;;;3.34;100.00;99274.28;5054301;28;20412;-75
2023/04/02 05:44:13;;;;;;;14.75;11.48;;;;;;;3.17;100.00;99243.78;5055991;28;20111;-75
2023/04/02 05:46:50;;;;;;;16.50;11.60;;;;;;;3.40;100.00;99283.59;5055983;28;20033;-76
2023/04/02 05:49:26;;;;;;;13.30;9.93;;;;;;;3.33;100.00;99262.31;5055895;28;20025;-75
2023/04/02 05:51:57;;;;;;;13.18;11.13;;;;;;;3.42;100.00;99271.53;5055588;28;20036;-75
2023/04/02 05:55:02;;;;;;;12.85;10.10;;;;;;;3.66;100.00;99294.09;5055256;28;20048;-75
2023/04/02 05:57:42;;;;;;;14.40;10.27;;;;;;;3.53;100.00;99292.72;5053258;28;20079;-75
2023/04/02 06:00:16;;;;;;;11.90;9.70;;;;;;;3.82;100.00;99306.63;5053041;28;20050;-75
2023/04/02 06:02:52;;;;;;;13.88;10.35;;;;;;;3.68;100.00;99292.34;5052972;28;20033;-76
2023/04/02 06:05:25;;;;;;;12.70;10.63;;;;;;;3.74;100.00;99288.75;5052713;28;20057;-75
2023/04/02 06:08:06;;;;;;;13.27;10.02;;;;;;;3.77;100.00;99300.75;5052804;28;20128;-75
2023/04/02 06:10:35;;;;;;;12.03;8.83;;;;;;;3.87;100.00;99305.59;5052726;28;20107;-74
2023/04/02 06:13:07;;;;;;;10.68;8.88;;;;;;;3.77;100.00;99304.16;5052411;28;20028;-76
2023/04/02 06:15:36;;;;;;;11.35;8.07;;;;;;;3.48;100.00;99294.53;5052724;28;20063;-76
2023/04/02 06:18:16;;;;;;;10.15;7.90;;;;;;;3.62;100.00;99294.22;5052486;28;20029;-75
2023/04/02 06:20:41;;;;;;;11.10;8.32;;;;;;;3.64;100.00;99326.78;5052578;28;20044;-75
2023/04/02 06:23:15;;;;;;;10.70;8.35;;;;;;;3.78;100.00;99329.03;5052348;28;20365;-75
2023/04/02 06:25:46;;;;;;;10.45;8.27;;;;;;;3.72;100.00;99329.19;5052462;28;20063;-77
2023/04/02 06:28:21;;;;;;;11.55;8.73;;;;;;;3.71;100.00;99330.06;5051988;28;20508;-77
2023/04/02 06:30:47;;;;;;;13.35;9.88;;;;;;;3.88;100.00;99322.78;5052434;28;20054;-76
2023/04/02 06:33:14;;;;;;;13.05;10.60;;;;;;;3.84;100.00;99330.63;5052812;28;20109;-75
2023/04/02 06:35:42;;;;;;;11.70;8.27;;;;;;;3.77;100.00;99359.97;5054826;28;20082;-76
2023/04/02 06:38:19;;;;;;;9.80;7.75;;;;;;;3.51;100.00;99356.28;5054501;28;20028;-76
2023/04/02 06:40:59;;;;;;;10.75;8.38;;;;;;;3.66;100.00;99358.47;5054866;28;20131;-76
2023/04/02 06:43:43;;;;;;;11.38;8.18;;;;;;;3.68;100.00;99371.34;5054542;28;20035;-76
2023/04/02 06:46:16;;;;;;;9.40;7.50;;;;;;;3.64;100.00;99352.53;5054379;28;20059;-76
2023/04/02 06:48:43;;;;;;;8.55;7.63;;;;;;;3.88;100.00;99373.47;5054442;28;20484;-76
2023/04/02 06:51:12;;;;;;;11.02;8.00;;;;;;;3.88;100.00;99355.44;5053780;28;20059;-75
2023/04/02 06:53:42;;;;;;;10.30;7.82;;;;;;;3.77;100.00;99388.31;5054389;28;20033;-75
2023/04/02 06:56:30;;;;;;;8.40;7.05;;;;;;;3.69;100.00;99389.34;5054269;28;20017;-74
2023/04/02 06:58:57;;;;;;;9.73;7.55;;;;;;;3.91;100.00;99389.66;5054333;28;20095;-74
2023/04/02 07:01:26;;;;;;;9.15;6.90;;;;;;;3.73;100.00;99397.84;5054331;28;20531;-75
2023/04/02 07:03:52;;;;;;;9.18;6.70;;;;;;;3.68;100.00;99404.81;5054321;28;20540;-75
2023/04/02 07:06:19;;;;;;;8.13;6.03;;;;;;;3.73;100.00;99401.25;5054495;28;20024;-75
2023/04/02 07:08:46;;;;;;;7.60;6.30;;;;;;;3.58;100.00;99385.28;5054061;28;20029;-75
2023/04/02 07:11:14;;;;;;;9.48;6.88;;;;;;;3.72;100.00;99415.03;5053661;28;20064;-75
2023/04/02 07:13:40;;;;;;;8.27;6.72;;;;;;;3.50;100.00;99394.06;5053717;28;20021;-76
2023/04/02 07:16:12;;;;;;;7.88;6.25;;;;;;;3.64;100.00;99419.50;5053798;28;20210;-76
2023/04/02 07:18:37;;;;;;;7.10;5.88;;;;;;;3.38;99.85;99426.94;5053934;28;20025;-75
2023/04/02 07:21:03;;;;;;;18.48;11.25;;;;;;;3.33;100.00;99429.63;5053701;28;20025;-75
2023/04/02 07:23:28;;;;;;;7.05;6.20;;;;;;;3.14;100.00;99405.13;5053579;28;20047;-75
2023/04/02 07:25:55;;;;;;;9.73;6.60;;;;;;;3.48;100.00;99439.56;5053735;28;20377;-76
2023/04/02 07:28:21;;;;;;;10.32;7.90;;;;;;;3.49;100.00;99418.09;5053577;28;20051;-75
2023/04/02 07:30:47;;;;;;;10.73;8.18;;;;;;;3.54;100.00;99435.16;5053865;28;20025;-75
2023/04/02 07:33:18;;;;;;;7.72;6.60;;;;;;;3.26;100.00;99407.44;5053446;28;20040;-75
2023/04/02 07:35:44;;;;;;;9.50;7.55;;;;;;;3.59;100.00;99436.78;5053788;28;20021;-76
2023/04/02 07:38:10;;;;;;;8.93;7.28;;;;;;;3.59;100.00;99438.50;5053449;28;20032;-76
2023/04/02 07:40:35;;;;;;;12.10;7.93;;;;;;;3.22;100.00;99382.66;5053178;28;20028;-76
2023/04/02 07:43:01;;;;;;;9.80;7.47;;;;;;;3.69;100.00;99440.00;5053694;28;20025;-76
2023/04/02 07:45:26;;;;;;;9.00;7.65;;;;;;;3.93;100.00;99461.78;5052143;28;20071;-76
2023/04/02 07:47:52;;;;;;;9.00;6.57;;;;;;;3.66;99.22;99466.66;5053560;28;20492;-76
2023/04/02 07:50:18;;;;;;;8.00;6.82;;;;;;;3.77;99.78;99460.44;5053242;28;20473;-76
2023/04/02 07:52:44;;;;;;;11.63;9.25;;;;;;;3.71;99.91;99474.31;5053263;28;20025;-76
2023/04/02 07:55:11;;;;;;;11.63;9.02;;;;;;;3.79;100.00;99444.06;5053012;28;20025;-76
2023/04/02 07:57:50;;;;;;;17.08;12.65;;;;;;;3.91;98.81;99453.25;5053390;28;20029;-76
2023/04/02 08:00:16;;;;;;;12.75;10.82;;;;;;;3.93;98.40;99477.25;5052526;28;20025;-76
2023/04/02 08:02:42;;;;;;;12.18;10.73;;;;;;;3.82;98.47;99467.19;5052209;28;20115;-75
2023/04/02 08:05:09;;;;;;;9.85;8.45;;;;;;;3.97;98.51;99492.63;5053008;28;20477;-75
2023/04/02 08:07:35;;;;;;;9.30;6.53;;;;;;;3.94;98.16;99477.22;5052872;28;20033;-76
2023/04/02 08:10:01;;;;;;;7.97;6.03;;;;;;;4.23;98.34;99499.75;5051418;28;20051;-76
2023/04/02 08:12:26;;;;;;;16.10;9.27;;;;;;;3.82;97.61;99479.22;5051514;28;20028;-75
2023/04/02 08:14:51;;;;;;;24.75;12.68;;;;;;;4.02;98.07;99489.94;5053116;28;20475;-75
2023/04/02 08:17:17;;;;;;;20.38;11.23;;;;;;;4.24;98.02;99510.91;5052928;28;20112;-75
2023/04/02 08:19:43;;;;;;;14.43;9.38;;;;;;;4.05;96.73;99492.44;5052994;28;20112;-76
2023/04/02 08:22:09;;;;;;;12.93;8.32;;;;;;;4.03;96.50;99488.19;5052636;28;20032;-75
2023/04/02 08:24:34;;;;;;;11.77;8.25;;;;;;;4.23;96.44;99498.91;5052877;28;20472;-75
2023/04/02 08:27:01;;;;;;;11.30;7.70;;;;;;;4.14;96.01;99473.34;5052758;28;20045;-76
2023/04/02 08:29:30;;;;;;;14.27;7.90;;;;;;;4.20;94.97;99499.81;5052199;28;20069;-76
2023/04/02 08:31:57;;;;;;;21.02;11.38;;;;;;;4.35;95.05;99529.56;5052332;28;20125;-76
2023/04/02 08:34:22;;;;;;;8.15;5.95;;;;;;;4.35;94.94;99526.13;5052187;28;20358;-76
2023/04/02 08:36:47;;;;;;;7.82;7.03;;;;;;;4.49;94.72;99534.38;5052532;28;20055;-76
2023/04/02 08:39:13;;;;;;;20.15;11.07;;;;;;;4.60;94.57;99534.16;5052320;28;20468;-76
2023/04/02 08:42:16;;;;;;;21.77;11.55;;;;;;;4.36;93.89;99525.25;5052845;28;20115;-75
2023/04/02 08:45:20;;;;;;;10.65;5.82;;;;;;;4.28;93.93;99514.25;5049921;28;20397;-77
2023/04/02 08:47:47;;;;;;;9.93;6.35;;;;;;;4.25;93.79;99548.69;5049985;28;20097;-76
2023/04/02 08:50:31;;;;;;;12.40;7.60;;;;;;;4.34;93.92;99555.34;5032897;28;20119;-76
2023/04/02 08:53:00;;;;;;;12.80;7.50;;;;;;;4.47;93.63;99549.91;5049651;28;20062;-76
2023/04/02 08:55:41;;;;;;;17.48;10.15;;;;;;;4.28;92.49;99551.19;5049444;28;20124;-76
2023/04/02 08:58:28;;;;;;;15.88;9.50;;;;;;;4.33;93.26;99545.94;5049376;28;20511;-76
2023/04/02 09:00:55;;;;;;;12.25;8.90;;;;;;;4.54;93.96;99550.59;5049662;28;20055;-76
2023/04/02 09:03:29;;;;;;;14.65;8.77;;;;;;;4.41;92.46;99555.19;5049648;28;20037;-78
2023/04/02 09:05:55;;;;;;;22.98;12.45;;;;;;;4.51;92.96;99563.59;5049514;28;20127;-78
2023/04/02 09:08:23;;;;;;;17.60;12.05;;;;;;;4.51;93.49;99550.69;5049260;28;20079;-78
2023/04/02 09:11:17;;;;;;;11.95;8.85;;;;;;;4.22;93.38;99546.19;5049551;28;20555;-78
2023/04/02 09:13:46;;;;;;;17.45;9.05;;;;;;;4.06;93.06;99539.69;5049246;28;20032;-78
2023/04/02 09:16:15;;;;;;;12.23;8.10;;;;;;;4.37;93.46;99543.25;5032509;28;20410;-78
2023/04/02 09:18:42;;;;;;;19.55;11.02;;;;;;;4.24;92.53;99534.94;5049333;28;20571;-78
2023/04/02 09:21:30;;;;;;;13.77;8.30;;;;;;;4.55;92.46;99567.78;5050375;28;20075;-78
2023/04/02 09:23:56;;;;;;;9.50;6.13;;;;;;;4.73;92.08;99574.25;5051986;28;20111;-78
2023/04/02 09:26:27;;;;;;;11.93;7.88;;;;;;;4.45;90.79;99567.13;5051663;28;20028;-78
2023/04/02 09:29:21;;;;;;;9.98;6.03;;;;;;;4.54;91.16;99586.69;5051631;28;20098;-78
2023/04/02 09:31:58;;;;;;;8.48;5.68;;;;;;;4.43;90.20;99591.28;5049197;28;20047;-78
2023/04/02 09:34:29;;;;;;;9.77;5.80;;;;;;;4.25;90.68;99574.47;5049178;28;20591;-78
2023/04/02 09:36:55;;;;;;;6.10;4.82;;;;;;;4.47;90.79;99592.91;5049327;28;20523;-78
2023/04/02 09:39:25;;;;;;;6.47;4.55;;;;;;;4.47;91.37;99585.16;5049086;28;20074;-78
2023/04/02 09:41:51;;;;;;;13.75;8.88;;;;;;;4.52;91.03;99580.75;5049222;28;20078;-78
2023/04/02 09:44:24;;;;;;;8.15;5.25;;;;;;;4.76;90.65;99620.59;5049004;28;20036;-78
2023/04/02 09:46:58;;;;;;;18.48;11.90;;;;;;;4.85;90.44;99625.56;5049148;28;20143;-79
2023/04/02 09:49:27;;;;;;;30.52;13.73;;;;;;;4.72;89.56;99616.41;5048938;28;20131;-79
2023/04/02 09:52:18;;;;;;;24.23;11.73;;;;;;;4.67;90.43;99631.13;5049055;28;20033;-79
2023/04/02 09:54:44;;;;;;;14.98;9.18;;;;;;;4.58;90.08;99631.34;5007576;28;20129;-77
2023/04/02 09:57:23;;;;;;;12.48;8.93;;;;;;;4.58;90.70;99629.59;5009458;28;20121;-76
2023/04/02 10:00:11;;;;;;;9.85;6.22;;;;;;;4.83;90.76;99642.78;5009449;28;20108;-78
2023/04/02 10:02:36;;;;;;;12.18;7.55;;;;;;;4.75;90.33;99618.91;5009132;28;20041;-76
2023/04/02 10:05:05;;;;;;;9.93;7.43;;;;;;;4.81;90.20;99644.56;5009433;28;20038;-77
2023/04/02 10:07:40;;;;;;;10.63;6.30;;;;;;;4.73;89.86;99641.31;5009237;28;20210;-77
2023/04/02 10:10:23;;;;;;;16.60;10.63;;;;;;;4.84;90.31;99653.94;5029137;28;20042;-80
2023/04/02 10:13:16;;;;;;;10.75;7.88;;;;;;;4.88;90.18;99647.84;5008916;28;20596;-80
2023/04/02 10:16:13;;;;;;;12.02;7.43;;;;;;;4.75;88.88;99652.44;4983497;28;20085;-77
2023/04/02 10:18:44;;;;;;;18.65;11.93;;;;;;;4.87;89.45;99664.22;4931483;29;20050;-77
2023/04/02 10:21:14;;;;;;;15.95;11.48;;;;;;;5.15;89.44;99660.09;4931663;29;20048;-79
2023/04/02 10:23:40;;;;;;;10.18;6.85;;;;;;;5.05;88.50;99670.66;4931480;29;20118;-79
2023/04/02 10:26:19;;;;;;;13.52;8.13;;;;;;;4.82;87.98;99666.91;4957655;28;20545;-79
2023/04/02 10:29:03;;;;;;;13.90;9.30;;;;;;;4.87;88.72;99667.63;4973547;28;20090;-79
2023/04/02 10:31:39;;;;;;;13.10;7.80;;;;;;;4.90;89.11;99682.22;4973363;28;20045;-79
2023/04/02 10:34:15;;;;;;;12.02;6.95;;;;;;;4.50;88.08;99652.13;4973715;28;20529;-79
2023/04/02 10:36:54;;;;;;;12.05;6.75;;;;;;;4.69;89.53;99683.56;4973476;28;20074;-79
2023/04/02 10:39:42;;;;;;;10.18;6.25;;;;;;;4.68;89.62;99687.88;4973387;28;20053;-78
2023/04/02 10:42:35;;;;;;;8.95;6.85;;;;;;;4.94;90.05;99683.84;4973359;28;20121;-78
2023/04/02 10:45:11;;;;;;;9.63;5.57;;;;;;;4.92;89.04;99664.94;4973479;28;20043;-78
2023/04/02 10:47:47;;;;;;;7.90;5.80;;;;;;;5.14;88.96;99691.97;4973454;28;20035;-77
2023/04/02 10:50:43;;;;;;;9.10;5.00;;;;;;;5.11;87.89;99688.63;4973186;28;20046;-78
2023/04/02 10:53:19;;;;;;;9.52;5.63;;;;;;;5.10;87.13;99692.94;4986561;28;20034;-77
2023/04/02 10:55:51;;;;;;;10.55;5.95;;;;;;;4.94;86.71;99679.53;5017348;28;20051;-77
2023/04/02 10:58:25;;;;;;;13.48;6.30;;;;;;;4.89;87.08;99708.91;5034458;28;20021;-77
2023/04/02 11:00:57;;;;;;;7.03;5.18;;;;;;;4.83;87.00;99704.72;5034278;28;20121;-77
2023/04/02 11:03:38;;;;;;;8.82;5.80;;;;;;;4.68;87.58;99703.34;5034240;28;20033;-77
2023/04/02 11:06:33;;;;;;;7.13;5.63;;;;;;;4.88;88.09;99714.94;5034510;28;20037;-78
2023/04/02 11:09:03;;;;;;;10.30;5.63;;;;;;;4.94;87.74;99712.22;5034105;28;20039;-77
2023/04/02 11:11:40;;;;;;;7.60;5.28;;;;;;;4.95;87.35;99719.94;5034027;28;20103;-78
2023/04/02 11:14:23;;;;;;;10.88;6.65;;;;;;;4.82;87.04;99720.25;5034195;28;20052;-79
2023/04/02 11:16:49;;;;;;;9.38;5.90;;;;;;;4.84;87.50;99734.78;5034148;28;20026;-79
2023/04/02 11:19:15;;;;;;;13.15;6.63;;;;;;;4.90;87.19;99728.66;5033822;28;20044;-79
2023/04/02 11:21:46;;;;;;;9.35;5.57;;;;;;;5.01;87.47;99734.41;5033678;28;20469;-79
2023/04/02 11:24:31;;;;;;;11.57;7.72;;;;;;;5.18;86.62;99734.03;5051142;28;20021;-79
2023/04/02 11:27:08;;;;;;;11.60;7.95;;;;;;;5.46;86.69;99734.25;5053798;28;20114;-78
2023/04/02 11:29:37;;;;;;;11.90;7.55;;;;;;;5.26;86.08;99722.63;5053535;28;20100;-78
2023/04/02 11:32:21;;;;;;;9.52;6.25;;;;;;;5.02;86.01;99745.63;5053383;28;20033;-78
2023/04/02 11:34:49;;;;;;;11.27;8.52;;;;;;;4.99;86.79;99749.13;5053799;28;20346;-77
2023/04/02 11:37:33;;;;;;;12.27;8.57;;;;;;;5.02;87.15;99751.63;5053859;28;20408;-77
2023/04/02 11:40:20;;;;;;;17.15;10.07;;;;;;;4.95;87.54;99755.22;5053496;28;20092;-77
2023/04/02 11:42:49;;;;;;;12.70;7.65;;;;;;;4.80;87.45;99734.91;5050754;28;20531;-77
2023/04/02 11:48:00;;;;;;;13.40;9.63;;;;;;;4.85;86.99;99759.75;5050711;28;20037;-77
2023/04/02 11:50:30;;;;;;;40.05;24.88;;;;;;;4.85;86.22;99759.75;5050690;28;20029;-78
2023/04/02 11:53:22;;;;;;;54.22;34.30;;;;;;;4.81;86.92;99746.94;5050754;28;20033;-78
2023/04/02 11:55:53;;;;;;;31.50;14.98;;;;;;;4.91;86.38;99775.09;4991693;28;20046;-78
2023/04/02 11:58:44;;;;;;;55.72;21.52;;;;;;;4.71;86.77;99777.22;4991473;28;20034;-79